Time;durP1;ratioP1;P1;durP2;ratioP2;P2;SDS_P1;SDS_P2;PMS_P1;PMS_P2;Temp;Humidity;BMP_temperature;BMP_pressure;BME280_temperature;BME280_humidity;BME280_pressure;Samples;Min_cycle;Max_cycle;Signal;HPM_P1;HPM_P2
2022/06/19 00:02:18;;;;;;;21.30;3.15;;;15.80;94.00;;;;;;5063990;28;20040;-45
2022/06/19 00:04:46;;;;;;;18.60;2.33;;;15.80;94.00;;;;;;5069871;28;20044;-45
2022/06/19 00:07:12;;;;;;;20.17;3.33;;;15.80;94.10;;;;;;5070229;28;20075;-44
2022/06/19 00:09:38;;;;;;;14.55;2.08;;;15.70;94.30;;;;;;5069063;28;20072;-45
2022/06/19 00:12:04;;;;;;;20.80;2.92;;;15.70;94.40;;;;;;5068057;28;20058;-45
2022/06/19 00:14:33;;;;;;;18.77;3.17;;;15.70;94.40;;;;;;5051542;28;20066;-44
2022/06/19 00:17:03;;;;;;;17.13;3.17;;;15.70;94.50;;;;;;5067662;28;20037;-44
2022/06/19 00:19:29;;;;;;;16.70;2.67;;;15.70;94.50;;;;;;5059826;28;20086;-46
2022/06/19 00:21:54;;;;;;;22.27;3.28;;;15.60;94.60;;;;;;5050883;28;20507;-44
2022/06/19 00:24:20;;;;;;;13.63;2.78;;;15.60;94.60;;;;;;5063722;28;20590;-45
2022/06/19 00:26:45;;;;;;;15.27;2.42;;;15.60;94.80;;;;;;5056161;28;20208;-44
2022/06/19 00:29:11;;;;;;;21.67;2.38;;;15.60;95.10;;;;;;5058246;28;20036;-44
2022/06/19 00:31:36;;;;;;;13.50;2.63;;;15.60;95.10;;;;;;5056516;28;20040;-44
2022/06/19 00:34:03;;;;;;;18.17;3.08;;;15.60;95.00;;;;;;5059782;28;20044;-44
2022/06/19 00:36:29;;;;;;;15.27;3.60;;;15.60;95.00;;;;;;5057480;28;20055;-44
2022/06/19 00:38:56;;;;;;;19.98;2.33;;;15.60;95.10;;;;;;5059577;28;20044;-44
2022/06/19 00:41:22;;;;;;;17.20;2.67;;;15.50;95.00;;;;;;5061075;28;20037;-44
2022/06/19 00:43:53;;;;;;;16.67;2.85;;;15.50;95.20;;;;;;5055549;28;20044;-44
2022/06/19 00:46:51;;;;;;;23.92;2.97;;;15.50;95.20;;;;;;5061155;28;20032;-44
2022/06/19 00:49:23;;;;;;;20.23;3.63;;;15.50;95.20;;;;;;5067034;28;20051;-46
2022/06/19 00:52:04;;;;;;;17.88;3.05;;;15.40;95.20;;;;;;5056534;28;20049;-45
2022/06/19 00:54:36;;;;;;;22.17;2.92;;;15.40;95.30;;;;;;5052691;28;20114;-44
2022/06/19 00:57:02;;;;;;;15.43;2.55;;;15.40;95.30;;;;;;5051042;28;20063;-44
2022/06/19 00:59:29;;;;;;;16.73;2.40;;;15.40;95.40;;;;;;5063883;28;20040;-44
2022/06/19 01:01:56;;;;;;;17.90;2.67;;;15.40;95.40;;;;;;5052531;28;20036;-45
2022/06/19 01:04:27;;;;;;;19.60;2.50;;;15.40;95.50;;;;;;5061533;28;20385;-46
2022/06/19 01:06:52;;;;;;;23.90;3.15;;;15.30;95.50;;;;;;5058933;28;20067;-44
2022/06/19 01:09:18;;;;;;;20.48;3.65;;;15.40;95.50;;;;;;5057359;28;20102;-44
2022/06/19 01:11:45;;;;;;;20.17;3.28;;;15.30;95.60;;;;;;5064047;28;20040;-45
2022/06/19 01:14:14;;;;;;;22.73;3.47;;;15.30;95.60;;;;;;5067472;28;20044;-44
2022/06/19 01:16:40;;;;;;;16.38;2.70;;;15.30;95.60;;;;;;5055989;28;20040;-45
2022/06/19 01:19:08;;;;;;;17.80;3.75;;;15.40;95.70;;;;;;5065894;28;20440;-45
2022/06/19 01:22:08;;;;;;;16.05;3.05;;;15.30;95.40;;;;;;5049418;28;20120;-45
2022/06/19 01:24:57;;;;;;;15.73;2.40;;;15.30;95.50;;;;;;5062315;28;20036;-44
2022/06/19 01:30:11;;;;;;;;;;;15.30;95.50;;;;;;5050426;28;20049;-44
2022/06/19 01:32:37;;;;;;;15.13;3.80;;;15.30;96.00;;;;;;5054561;28;19920;-44
2022/06/19 01:35:05;;;;;;;13.75;3.35;;;15.30;95.70;;;;;;5067041;28;20131;-44
2022/06/19 01:37:31;;;;;;;19.35;3.95;;;15.30;95.70;;;;;;5053700;28;20040;-44
2022/06/19 01:40:09;;;;;;;10.95;1.50;;;15.30;95.50;;;;;;5064509;28;20079;-44
2022/06/19 01:42:35;;;;;;;29.10;3.85;;;15.30;95.60;;;;;;5055007;28;20045;-44
2022/06/19 01:45:01;;;;;;;16.42;1.80;;;15.30;95.70;;;;;;5049382;28;20033;-46
2022/06/19 01:47:29;;;;;;;16.23;2.65;;;15.20;95.70;;;;;;5060074;28;20044;-45
2022/06/19 01:49:57;;;;;;;18.83;3.88;;;15.20;96.00;;;;;;5052968;28;20055;-44
2022/06/19 01:52:25;;;;;;;18.58;2.40;;;15.20;96.20;;;;;;5060539;28;20501;-45
2022/06/19 01:54:56;;;;;;;13.25;2.58;;;15.20;96.40;;;;;;5051386;28;20090;-46
2022/06/19 01:57:23;;;;;;;20.88;3.78;;;15.20;96.40;;;;;;5062703;28;20040;-44
2022/06/19 01:59:51;;;;;;;17.30;2.33;;;15.10;96.20;;;;;;5066418;28;20037;-46
2022/06/19 02:02:18;;;;;;;13.63;1.73;;;15.10;96.30;;;;;;5065127;28;20045;-44
2022/06/19 02:04:44;;;;;;;;;;;15.10;96.00;;;;;;5052579;28;20112;-44
2022/06/19 02:07:19;;;;;;;13.95;2.17;;;15.10;96.00;;;;;;5062576;28;20067;-48
2022/06/19 02:09:46;;;;;;;19.27;2.05;;;15.10;96.00;;;;;;5066412;28;20045;-44
2022/06/19 02:12:11;;;;;;;13.82;1.58;;;15.10;96.00;;;;;;5059737;28;20047;-46
2022/06/19 02:14:37;;;;;;;18.08;2.85;;;15.20;96.00;;;;;;5064521;28;20525;-44
2022/06/19 02:17:18;;;;;;;9.55;1.10;;;15.10;95.70;;;;;;5066341;28;20044;-45
2022/06/19 02:19:43;;;;;;;9.57;1.02;;;15.10;95.80;;;;;;5067689;28;20059;-46
2022/06/19 02:22:12;;;;;;;15.65;1.13;;;15.10;95.60;;;;;;5064825;28;20033;-44
2022/06/19 02:24:38;;;;;;;16.23;1.60;;;15.10;95.00;;;;;;5060933;28;20286;-45
2022/06/19 02:27:05;;;;;;;12.18;1.90;;;15.10;94.40;;;;;;5067574;28;20052;-47
2022/06/19 02:29:31;;;;;;;13.73;1.92;;;15.10;94.30;;;;;;5066414;28;20091;-44
2022/06/19 02:31:57;;;;;;;6.97;1.10;;;15.10;94.10;;;;;;5058654;28;20041;-45
2022/06/19 02:34:32;;;;;;;13.10;2.03;;;15.20;93.80;;;;;;5066063;28;20564;-44
2022/06/19 02:37:02;;;;;;;8.52;1.60;;;15.20;93.90;;;;;;5054004;28;20041;-45
2022/06/19 02:39:45;;;;;;;13.63;1.63;;;15.20;93.90;;;;;;5069875;28;20090;-44
2022/06/19 02:42:31;;;;;;;13.15;1.95;;;15.20;94.20;;;;;;5065952;28;20428;-45
2022/06/19 02:45:04;;;;;;;12.48;1.17;;;15.20;94.30;;;;;;5069809;28;20044;-44
2022/06/19 02:47:33;;;;;;;8.07;1.17;;;15.20;94.20;;;;;;5066137;28;20056;-44
2022/06/19 02:49:59;;;;;;;16.05;1.48;;;15.20;94.20;;;;;;5060122;28;20040;-45
2022/06/19 02:52:25;;;;;;;8.30;1.20;;;15.20;94.10;;;;;;5063634;28;20478;-43
2022/06/19 02:54:51;;;;;;;9.23;1.00;;;15.20;93.80;;;;;;5064816;28;20037;-44
2022/06/19 02:57:17;;;;;;;10.35;1.85;;;15.10;93.70;;;;;;5053092;28;20048;-44
2022/06/19 02:59:43;;;;;;;13.70;1.52;;;15.20;93.60;;;;;;5069785;28;21389;-47
2022/06/19 03:02:11;;;;;;;20.10;2.00;;;15.10;93.50;;;;;;5069494;28;20044;-45
2022/06/19 03:04:42;;;;;;;15.85;1.33;;;15.20;93.50;;;;;;5065789;28;20040;-44
2022/06/19 03:07:08;;;;;;;16.40;1.77;;;15.10;93.30;;;;;;5060112;28;20070;-45
2022/06/19 03:09:34;;;;;;;7.60;1.13;;;15.10;93.40;;;;;;5055051;28;20037;-44
2022/06/19 03:11:59;;;;;;;25.85;2.60;;;15.10;93.40;;;;;;5053551;28;20079;-45
2022/06/19 03:14:25;;;;;;;7.15;1.92;;;15.10;93.40;;;;;;5054371;28;20091;-45
2022/06/19 03:16:51;;;;;;;12.70;2.00;;;15.10;93.70;;;;;;5071351;28;20047;-45
2022/06/19 03:19:17;;;;;;;22.40;1.95;;;15.10;93.70;;;;;;5061110;28;20077;-45
2022/06/19 03:21:43;;;;;;;15.38;2.83;;;15.10;93.90;;;;;;5070368;28;20071;-45
2022/06/19 03:24:09;;;;;;;12.25;1.85;;;15.10;94.30;;;;;;5063611;28;20473;-44
2022/06/19 03:26:34;;;;;;;18.40;1.63;;;15.10;94.10;;;;;;5069565;28;20098;-44
2022/06/19 03:29:00;;;;;;;8.50;0.98;;;15.10;94.10;;;;;;5058576;28;20526;-44
2022/06/19 03:31:27;;;;;;;10.77;1.35;;;15.10;94.20;;;;;;5061282;28;20032;-46
2022/06/19 03:33:53;;;;;;;22.25;2.00;;;15.10;94.50;;;;;;5061454;28;20036;-44
2022/06/19 03:36:20;;;;;;;16.08;1.48;;;15.10;94.20;;;;;;5057610;28;20056;-45
2022/06/19 03:38:46;;;;;;;10.95;1.65;;;15.10;94.20;;;;;;5060969;28;20079;-45
2022/06/19 03:41:12;;;;;;;12.65;1.90;;;15.10;94.40;;;;;;5051033;28;20406;-44
2022/06/19 03:43:38;;;;;;;15.27;1.60;;;15.10;94.50;;;;;;5058487;28;20032;-45
2022/06/19 03:46:12;;;;;;;17.55;2.58;;;15.10;94.60;;;;;;5067926;28;20048;-44
2022/06/19 03:48:48;;;;;;;11.93;3.13;;;15.10;94.70;;;;;;5063433;28;20063;-44
2022/06/19 03:51:17;;;;;;;11.10;1.45;;;15.10;95.00;;;;;;5060426;28;20071;-44
2022/06/19 03:53:45;;;;;;;16.75;1.70;;;15.10;94.90;;;;;;5060820;28;20095;-44
2022/06/19 03:56:16;;;;;;;15.93;1.80;;;15.10;95.10;;;;;;5051592;28;20517;-45
2022/06/19 03:58:45;;;;;;;16.42;1.73;;;15.10;95.20;;;;;;5056779;28;20050;-44
2022/06/19 04:01:24;;;;;;;17.58;2.03;;;15.10;95.20;;;;;;5054684;28;20041;-45
2022/06/19 04:03:51;;;;;;;14.93;2.53;;;15.10;95.30;;;;;;5057894;28;20406;-44
2022/06/19 04:06:20;;;;;;;11.65;1.85;;;15.20;95.40;;;;;;5055507;28;20379;-44
2022/06/19 04:08:46;;;;;;;10.35;1.63;;;15.10;95.80;;;;;;5056481;28;20115;-45
2022/06/19 04:11:14;;;;;;;18.77;2.40;;;15.10;95.70;;;;;;5053963;28;20158;-44
2022/06/19 04:13:40;;;;;;;9.10;1.50;;;15.10;95.90;;;;;;5061185;28;20277;-45
2022/06/19 04:16:07;;;;;;;9.35;1.75;;;15.10;96.10;;;;;;5056966;28;20047;-44
2022/06/19 04:18:34;;;;;;;9.48;1.27;;;15.10;96.30;;;;;;5064774;28;20133;-43
2022/06/19 04:21:00;;;;;;;;;;;15.10;96.40;;;;;;5059258;28;20194;-44
2022/06/19 04:23:26;;;;;;;14.20;1.92;;;15.10;96.30;;;;;;5064389;28;19951;-45
2022/06/19 04:25:53;;;;;;;14.05;1.48;;;15.10;96.20;;;;;;5062488;28;20037;-45
2022/06/19 04:28:22;;;;;;;;;;;15.10;96.10;;;;;;5057703;28;20036;-45
2022/06/19 04:30:49;;;;;;;16.60;2.53;;;15.10;96.30;;;;;;5053607;28;19916;-45
2022/06/19 04:33:16;;;;;;;14.63;2.63;;;15.10;96.00;;;;;;5067685;28;20127;-44
2022/06/19 04:35:43;;;;;;;11.85;2.20;;;15.10;96.30;;;;;;5057254;28;20032;-45
2022/06/19 04:38:08;;;;;;;12.60;1.88;;;15.00;95.90;;;;;;5067307;28;20037;-45
2022/06/19 04:40:36;;;;;;;11.02;1.17;;;15.10;95.70;;;;;;5067477;28;20631;-45
2022/06/19 04:43:02;;;;;;;13.07;1.80;;;15.00;95.30;;;;;;5050881;28;20064;-44
2022/06/19 04:45:28;;;;;;;15.80;1.88;;;15.00;95.00;;;;;;5054046;28;20511;-44
2022/06/19 04:47:54;;;;;;;8.55;1.23;;;15.00;94.90;;;;;;5064212;28;20043;-44
2022/06/19 04:50:19;;;;;;;24.33;2.00;;;15.00;94.30;;;;;;5052399;28;20045;-45
2022/06/19 04:52:45;;;;;;;15.82;1.65;;;15.00;94.20;;;;;;5064250;28;20282;-47
2022/06/19 04:55:12;;;;;;;18.13;2.33;;;14.90;94.40;;;;;;5055754;28;20039;-44
2022/06/19 04:57:37;;;;;;;28.92;2.15;;;14.90;94.40;;;;;;5050750;28;20115;-45
2022/06/19 05:00:07;;;;;;;11.48;1.45;;;14.80;94.30;;;;;;5056605;28;20109;-44
2022/06/19 05:02:32;;;;;;;11.40;1.33;;;14.80;94.30;;;;;;5050711;28;20100;-44
2022/06/19 05:04:58;;;;;;;12.63;1.35;;;14.90;94.30;;;;;;5060846;28;20025;-45
2022/06/19 05:07:24;;;;;;;10.55;0.93;;;14.90;93.70;;;;;;5048907;28;20101;-47
2022/06/19 05:09:49;;;;;;;9.32;1.13;;;14.90;93.80;;;;;;5062468;28;20411;-45
2022/06/19 05:12:16;;;;;;;10.07;1.60;;;15.00;93.70;;;;;;5054773;28;20044;-44
2022/06/19 05:14:41;;;;;;;27.60;1.60;;;15.00;93.10;;;;;;5063861;28;20045;-44
2022/06/19 05:17:07;;;;;;;5.78;1.15;;;15.10;92.60;;;;;;5066328;28;20119;-44
2022/06/19 05:19:32;;;;;;;13.13;0.85;;;15.20;92.20;;;;;;5067603;28;20055;-46
2022/06/19 05:22:01;;;;;;;9.50;1.10;;;15.30;92.00;;;;;;5062655;28;20062;-44
2022/06/19 05:24:26;;;;;;;6.50;0.63;;;15.30;92.30;;;;;;5057053;28;20045;-44
2022/06/19 05:26:52;;;;;;;9.40;1.25;;;15.40;92.30;;;;;;5059055;28;20033;-44
2022/06/19 05:29:18;;;;;;;7.40;1.52;;;15.50;92.00;;;;;;5049693;28;20052;-44
2022/06/19 05:31:44;;;;;;;6.28;1.10;;;15.50;91.80;;;;;;5067575;28;20047;-44
2022/06/19 05:34:09;;;;;;;6.47;0.70;;;15.60;91.50;;;;;;5068619;28;20499;-44
2022/06/19 05:36:35;;;;;;;3.88;0.60;;;15.60;91.80;;;;;;5055024;28;20132;-45
2022/06/19 05:39:00;;;;;;;11.35;1.08;;;15.60;91.30;;;;;;5051628;28;20072;-44
2022/06/19 05:41:28;;;;;;;8.52;1.00;;;15.60;91.60;;;;;;5064877;28;20037;-44
2022/06/19 05:43:54;;;;;;;6.10;0.50;;;15.70;91.50;;;;;;5059924;28;20041;-46
2022/06/19 05:46:20;;;;;;;5.18;1.27;;;15.70;91.50;;;;;;5050523;28;20067;-44
2022/06/19 05:48:46;;;;;;;9.70;0.80;;;15.70;91.20;;;;;;5058926;28;20071;-44
2022/06/19 05:51:18;;;;;;;7.07;1.05;;;15.70;91.30;;;;;;5053553;28;20040;-44
2022/06/19 05:53:48;;;;;;;7.65;1.00;;;15.70;91.30;;;;;;5055664;28;20517;-45
2022/06/19 05:56:15;;;;;;;4.38;0.70;;;15.60;91.00;;;;;;5073294;28;20041;-46
2022/06/19 05:58:41;;;;;;;7.68;0.85;;;15.60;91.20;;;;;;5064372;28;20032;-45
2022/06/19 06:01:07;;;;;;;11.48;1.75;;;15.60;91.20;;;;;;5053398;28;20045;-45
2022/06/19 06:03:33;;;;;;;8.00;0.50;;;15.60;91.10;;;;;;5062913;28;20040;-44
2022/06/19 06:06:05;;;;;;;7.60;0.90;;;15.70;91.30;;;;;;5073279;28;20041;-45
2022/06/19 06:08:31;;;;;;;4.57;0.77;;;15.70;91.30;;;;;;5069704;28;20070;-46
2022/06/19 06:10:57;;;;;;;7.63;0.85;;;15.60;91.60;;;;;;5053620;28;20103;-45
2022/06/19 06:13:22;;;;;;;10.63;0.93;;;15.70;91.70;;;;;;5059964;28;20498;-44
2022/06/19 06:15:48;;;;;;;4.35;0.70;;;15.60;91.50;;;;;;5072781;28;20105;-46
2022/06/19 06:18:15;;;;;;;10.38;1.17;;;15.70;91.30;;;;;;5072896;28;20041;-46
2022/06/19 06:20:41;;;;;;;6.20;1.08;;;15.70;91.30;;;;;;5069807;28;20047;-44
2022/06/19 06:23:07;;;;;;;7.47;0.63;;;15.80;90.90;;;;;;5072070;28;20044;-44
2022/06/19 06:25:34;;;;;;;7.75;1.10;;;15.80;91.10;;;;;;5062383;28;20041;-44
2022/06/19 06:28:00;;;;;;;7.78;0.77;;;15.80;91.30;;;;;;5052702;28;20041;-46
2022/06/19 06:30:26;;;;;;;8.93;0.70;;;15.80;91.40;;;;;;5053611;28;20052;-46
2022/06/19 06:32:51;;;;;;;12.93;1.33;;;15.80;91.50;;;;;;5070376;28;20041;-45
2022/06/19 06:35:17;;;;;;;8.05;0.60;;;15.80;91.70;;;;;;5071232;28;20072;-44
2022/06/19 06:37:43;;;;;;;13.20;1.83;;;15.70;91.80;;;;;;5072500;28;20123;-45
2022/06/19 06:40:09;;;;;;;8.98;1.10;;;15.70;92.10;;;;;;5070809;28;20370;-45
2022/06/19 06:42:35;;;;;;;;;;;15.70;92.30;;;;;;5072707;28;20040;-45
2022/06/19 06:45:00;;;;;;;7.45;1.38;;;15.70;92.70;;;;;;5071571;28;19916;-45
2022/06/19 06:47:26;;;;;;;11.88;1.95;;;15.70;92.70;;;;;;5071713;28;20044;-45
2022/06/19 06:49:52;;;;;;;11.32;1.50;;;15.70;93.00;;;;;;5072826;28;20043;-44
2022/06/19 06:52:17;;;;;;;8.45;1.00;;;15.70;93.00;;;;;;5064094;28;20150;-45
2022/06/19 06:54:43;;;;;;;7.32;0.85;;;15.70;92.80;;;;;;5043936;28;20067;-44
2022/06/19 06:57:09;;;;;;;8.80;1.50;;;15.70;92.80;;;;;;5069863;28;20088;-45
2022/06/19 06:59:36;;;;;;;6.43;0.73;;;15.70;92.60;;;;;;5051900;28;20391;-44
2022/06/19 07:02:01;;;;;;;7.07;0.80;;;15.70;92.80;;;;;;5052962;28;20104;-44
2022/06/19 07:04:27;;;;;;;16.15;1.23;;;15.70;92.90;;;;;;5051270;28;20525;-45
2022/06/19 07:06:53;;;;;;;13.75;1.05;;;15.70;93.00;;;;;;5051178;28;20116;-44
2022/06/19 07:09:19;;;;;;;7.68;0.70;;;15.70;93.20;;;;;;5056664;28;20040;-44
2022/06/19 07:11:48;;;;;;;9.57;1.83;;;15.70;93.30;;;;;;5058942;28;20541;-44
2022/06/19 07:14:17;;;;;;;13.25;1.77;;;15.60;93.30;;;;;;5070729;28;20032;-46
2022/06/19 07:16:43;;;;;;;8.38;1.40;;;15.70;93.20;;;;;;5055654;28;20041;-45
2022/06/19 07:19:09;;;;;;;10.18;1.17;;;15.60;93.20;;;;;;5051625;28;20041;-44
2022/06/19 07:21:37;;;;;;;14.27;1.42;;;15.60;93.30;;;;;;5051564;28;20037;-46
2022/06/19 07:24:02;;;;;;;12.48;1.15;;;15.50;93.50;;;;;;5051104;28;20257;-44
2022/06/19 07:26:29;;;;;;;13.13;0.93;;;15.50;93.90;;;;;;5052273;28;20048;-45
2022/06/19 07:28:55;;;;;;;;;;;15.40;94.00;;;;;;5056978;28;20060;-44
2022/06/19 07:31:21;;;;;;;12.70;1.45;;;15.40;94.40;;;;;;5066583;28;19923;-44
2022/06/19 07:33:47;;;;;;;5.70;1.23;;;15.40;94.30;;;;;;5071329;28;20409;-44
2022/06/19 07:36:16;;;;;;;7.28;1.05;;;15.40;94.60;;;;;;5069258;28;20052;-44
2022/06/19 07:38:41;;;;;;;10.52;2.03;;;15.40;94.80;;;;;;5064487;28;20043;-46
2022/06/19 07:41:07;;;;;;;9.73;1.20;;;15.30;94.80;;;;;;5071262;28;20424;-44
2022/06/19 07:43:32;;;;;;;8.93;0.80;;;15.30;95.00;;;;;;5049518;28;20029;-44
2022/06/19 07:45:58;;;;;;;7.43;0.90;;;15.30;95.00;;;;;;5057949;28;20036;-45
2022/06/19 07:51:08;;;;;;;11.95;1.35;;;15.30;95.40;;;;;;5050631;28;20040;-47
2022/06/19 07:53:34;;;;;;;7.65;1.33;;;15.30;95.50;;;;;;5050442;28;20086;-46
2022/06/19 07:55:59;;;;;;;10.70;2.50;;;15.30;95.60;;;;;;5053870;28;20064;-45
2022/06/19 07:58:25;;;;;;;10.27;1.77;;;15.30;95.40;;;;;;5051363;28;20033;-44
2022/06/19 08:00:50;;;;;;;10.88;1.25;;;15.40;95.60;;;;;;5044894;28;20041;-44
2022/06/19 08:03:16;;;;;;;10.50;1.08;;;15.40;95.30;;;;;;5057689;28;20526;-45
2022/06/19 08:05:43;;;;;;;6.72;0.98;;;15.30;95.20;;;;;;5069614;28;20040;-44
2022/06/19 08:08:19;;;;;;;11.55;1.58;;;15.30;95.60;;;;;;5054943;28;20055;-45
2022/06/19 08:10:47;;;;;;;8.65;1.33;;;15.30;95.30;;;;;;5059917;28;20039;-45
2022/06/19 08:13:14;;;;;;;8.38;0.65;;;15.30;95.40;;;;;;5075431;28;20110;-45
2022/06/19 08:15:40;;;;;;;;;;;15.30;96.00;;;;;;5070766;28;20041;-45
2022/06/19 08:18:06;;;;;;;10.30;1.38;;;15.30;96.30;;;;;;5067886;28;19920;-45
2022/06/19 08:20:31;;;;;;;13.75;2.25;;;15.30;96.30;;;;;;5069601;28;20115;-45
2022/06/19 08:22:57;;;;;;;186.63;11.32;;;15.30;96.50;;;;;;5061823;28;20078;-45
2022/06/19 08:25:24;;;;;;;13.48;1.48;;;15.30;96.50;;;;;;5051697;28;20045;-44
2022/06/19 08:27:50;;;;;;;10.23;1.10;;;15.40;96.50;;;;;;5057366;28;20472;-44
2022/06/19 08:30:26;;;;;;;11.90;1.77;;;15.40;96.10;;;;;;5067598;28;20079;-45
2022/06/19 08:32:52;;;;;;;10.35;1.30;;;15.40;96.40;;;;;;5056513;28;20040;-45
2022/06/19 08:35:18;;;;;;;10.43;1.63;;;15.30;96.30;;;;;;5056501;28;20042;-45
2022/06/19 08:37:45;;;;;;;;;;;15.30;96.40;;;;;;5059314;28;20086;-45
2022/06/19 08:40:25;;;;;;;7.63;1.15;;;15.40;97.00;;;;;;5062471;28;19965;-46
2022/06/19 08:43:18;;;;;;;9.68;1.48;;;15.40;96.40;;;;;;5057867;28;20040;-47
2022/06/19 08:46:05;;;;;;;11.20;1.60;;;15.40;96.50;;;;;;5063759;28;20040;-45
2022/06/19 08:48:49;;;;;;;21.27;1.77;;;15.40;96.60;;;;;;5056596;28;20057;-45
2022/06/19 08:51:30;;;;;;;22.80;2.38;;;15.30;96.50;;;;;;5066201;28;20107;-45
2022/06/19 08:54:22;;;;;;;9.88;1.23;;;15.30;96.50;;;;;;5059391;28;20039;-46
2022/06/19 08:57:13;;;;;;;9.63;1.27;;;15.30;96.50;;;;;;5062444;28;20045;-44
2022/06/19 08:59:56;;;;;;;7.60;1.05;;;15.30;96.70;;;;;;5057893;28;20042;-44
2022/06/19 09:02:54;;;;;;;14.35;1.58;;;15.30;97.50;;;;;;5058509;28;20048;-45
2022/06/19 09:05:47;;;;;;;6.47;1.15;;;15.30;96.90;;;;;;5046335;28;20119;-44
2022/06/19 09:08:25;;;;;;;9.90;1.25;;;15.30;96.70;;;;;;5048065;28;20132;-44
2022/06/19 09:11:11;;;;;;;8.45;1.05;;;15.20;96.60;;;;;;5054340;28;20174;-44
2022/06/19 09:13:45;;;;;;;13.25;1.38;;;15.10;96.90;;;;;;5049595;28;20055;-45
2022/06/19 09:16:41;;;;;;;10.32;1.63;;;15.10;96.90;;;;;;5063901;28;20044;-45
2022/06/19 09:19:46;;;;;;;15.95;1.30;;;15.10;97.80;;;;;;5066058;28;20512;-44
2022/06/19 09:22:29;;;;;;;12.70;2.03;;;15.10;98.70;;;;;;5026281;28;20456;-44
2022/06/19 09:25:02;;;;;;;11.85;1.58;;;15.20;99.00;;;;;;5064705;28;20388;-44
2022/06/19 09:27:41;;;;;;;7.75;1.05;;;15.30;99.20;;;;;;5058566;28;20053;-45
2022/06/19 09:30:19;;;;;;;13.52;1.80;;;15.30;99.20;;;;;;5065687;28;20577;-47
2022/06/19 09:32:51;;;;;;;12.43;1.83;;;15.30;99.40;;;;;;5047805;28;20051;-46
2022/06/19 09:35:25;;;;;;;9.18;1.40;;;15.40;99.20;;;;;;5049512;28;20029;-45
2022/06/19 09:38:08;;;;;;;7.68;0.82;;;15.40;99.40;;;;;;5055911;28;20045;-45
2022/06/19 09:40:41;;;;;;;13.52;2.03;;;15.40;99.70;;;;;;5056714;28;20041;-44
2022/06/19 09:43:14;;;;;;;11.52;1.67;;;15.50;99.50;;;;;;5056883;28;20402;-44
2022/06/19 09:45:46;;;;;;;11.82;1.63;;;15.50;99.30;;;;;;5052904;28;20067;-44
2022/06/19 09:48:37;;;;;;;10.10;1.38;;;15.50;99.80;;;;;;5058092;28;20506;-44
2022/06/19 09:51:17;;;;;;;12.20;1.38;;;15.60;99.70;;;;;;5053378;28;20090;-46
2022/06/19 09:53:57;;;;;;;9.90;1.38;;;15.60;99.20;;;;;;5066264;28;20043;-45
2022/06/19 09:56:42;;;;;;;12.93;1.25;;;15.70;99.40;;;;;;5060204;28;20494;-44
2022/06/19 09:59:16;;;;;;;15.30;1.73;;;15.70;99.30;;;;;;5066118;28;20044;-44
2022/06/19 10:01:44;;;;;;;13.50;1.65;;;15.80;99.20;;;;;;5053201;28;20268;-44
2022/06/19 10:04:38;;;;;;;12.50;1.33;;;15.90;98.90;;;;;;5047366;28;20040;-44
2022/06/19 10:07:15;;;;;;;14.57;1.35;;;15.90;99.00;;;;;;5073932;28;20036;-44
2022/06/19 10:09:50;;;;;;;13.38;1.58;;;16.00;98.90;;;;;;5048359;28;20067;-44
2022/06/19 10:12:40;;;;;;;10.40;2.08;;;16.00;98.70;;;;;;5054946;28;20037;-46
2022/06/19 10:15:14;;;;;;;10.02;1.30;;;16.10;98.70;;;;;;5059729;28;20036;-44
2022/06/19 10:17:57;;;;;;;4.38;1.20;;;16.10;99.10;;;;;;5060713;28;20071;-44
2022/06/19 10:20:49;;;;;;;15.25;2.45;;;16.20;98.90;;;;;;5047659;28;20040;-44
2022/06/19 10:23:20;;;;;;;9.40;1.63;;;16.30;99.30;;;;;;5049417;28;20410;-45
2022/06/19 10:26:16;;;;;;;9.68;1.67;;;16.40;99.30;;;;;;5047741;28;20536;-46
2022/06/19 10:28:57;;;;;;;13.77;1.50;;;16.50;98.80;;;;;;5053355;28;20041;-46
2022/06/19 10:31:47;;;;;;;9.40;1.00;;;16.60;99.50;;;;;;5049331;28;20111;-44
2022/06/19 10:34:34;;;;;;;11.63;1.92;;;16.60;98.60;;;;;;5049938;28;20037;-44
2022/06/19 10:37:20;;;;;;;10.27;1.27;;;16.70;98.70;;;;;;5055990;28;20068;-44
2022/06/19 10:39:54;;;;;;;14.45;2.10;;;16.80;98.40;;;;;;5054487;28;20096;-44
2022/06/19 10:42:31;;;;;;;11.95;1.60;;;16.80;98.50;;;;;;5063894;28;20106;-47
2022/06/19 10:45:27;;;;;;;10.82;1.42;;;16.80;98.80;;;;;;5062103;28;20112;-44
2022/06/19 10:48:43;;;;;;;7.88;1.13;;;16.80;98.60;;;;;;5059111;28;20039;-45
2022/06/19 10:51:49;;;;;;;8.45;0.88;;;16.80;97.90;;;;;;4990253;28;20072;-44
2022/06/19 10:54:14;;;;;;;11.05;1.48;;;16.80;98.40;;;;;;4995040;28;20560;-44
2022/06/19 10:56:40;;;;;;;10.63;1.13;;;16.80;98.40;;;;;;5040710;28;20135;-44
2022/06/19 10:59:06;;;;;;;12.57;2.03;;;16.80;98.30;;;;;;5053465;28;20036;-44
2022/06/19 11:04:23;;;;;;;7.75;0.88;;;16.80;98.00;;;;;;5052025;28;20080;-45
2022/06/19 11:07:05;;;;;;;11.13;1.30;;;16.90;98.00;;;;;;5051902;28;20052;-44
2022/06/19 11:09:40;;;;;;;13.63;1.70;;;16.90;98.50;;;;;;5065302;28;20044;-45
2022/06/19 11:12:17;;;;;;;16.90;2.45;;;17.00;98.20;;;;;;5065406;28;20625;-44
2022/06/19 11:14:57;;;;;;;9.88;1.23;;;17.10;97.40;;;;;;5049657;28;20079;-45
2022/06/19 11:17:38;;;;;;;9.48;1.05;;;17.10;97.00;;;;;;5055261;28;20119;-44
2022/06/19 11:20:16;;;;;;;11.85;2.72;;;17.10;97.50;;;;;;5068445;28;20091;-45
2022/06/19 11:22:43;;;;;;;8.73;1.33;;;17.10;97.40;;;;;;5063152;28;20048;-46
2022/06/19 11:25:21;;;;;;;10.85;1.65;;;17.20;97.10;;;;;;5061244;28;20045;-44
2022/06/19 11:28:02;;;;;;;15.13;1.60;;;17.10;96.80;;;;;;5067250;28;20114;-44
2022/06/19 11:30:33;;;;;;;10.95;2.50;;;17.00;96.90;;;;;;5069958;28;20040;-44
2022/06/19 11:32:59;;;;;;;10.90;1.70;;;16.90;97.00;;;;;;5061938;28;20309;-45
2022/06/19 11:35:40;;;;;;;9.57;1.10;;;16.90;97.30;;;;;;5051732;28;20120;-44
2022/06/19 11:38:06;;;;;;;9.73;1.80;;;16.90;97.30;;;;;;5055518;28;20639;-44
2022/06/19 11:40:36;;;;;;;8.60;1.55;;;16.80;96.90;;;;;;5069371;28;20036;-46
2022/06/19 11:43:04;;;;;;;9.02;1.45;;;16.70;96.70;;;;;;5056794;28;20037;-45
2022/06/19 11:45:35;;;;;;;8.85;1.13;;;16.60;96.70;;;;;;5057510;28;20047;-46
2022/06/19 11:48:07;;;;;;;8.70;2.30;;;16.60;97.00;;;;;;5053997;28;20451;-44
2022/06/19 11:50:32;;;;;;;9.50;1.52;;;16.50;97.30;;;;;;5069416;28;20048;-45
2022/06/19 11:53:10;;;;;;;8.13;1.45;;;16.50;96.90;;;;;;5067144;28;20051;-44
2022/06/19 11:55:45;;;;;;;10.10;2.75;;;16.50;97.10;;;;;;5070592;28;20051;-44
2022/06/19 11:58:26;;;;;;;5.88;1.65;;;16.40;97.60;;;;;;5065436;28;20033;-44
2022/06/19 12:01:14;;;;;;;11.00;2.35;;;16.50;97.80;;;;;;5073993;28;20074;-45
2022/06/19 12:03:40;;;;;;;10.63;2.55;;;16.40;97.90;;;;;;5067399;28;20036;-44
2022/06/19 12:06:09;;;;;;;7.78;1.77;;;16.50;97.80;;;;;;5076651;28;20045;-44
2022/06/19 12:08:41;;;;;;;13.32;2.03;;;16.50;97.40;;;;;;5065564;28;20034;-44
2022/06/19 12:11:08;;;;;;;11.15;1.90;;;16.50;97.60;;;;;;5050377;28;20041;-44
2022/06/19 12:13:38;;;;;;;14.13;2.38;;;16.50;97.80;;;;;;5052063;28;20033;-44
2022/06/19 12:16:18;;;;;;;7.93;1.65;;;16.50;97.70;;;;;;5052429;28;20116;-44
2022/06/19 12:18:44;;;;;;;9.93;2.70;;;16.40;97.50;;;;;;5066553;28;20033;-46
2022/06/19 12:21:19;;;;;;;;;;;16.40;97.50;;;;;;5050294;28;20518;-44
2022/06/19 12:24:09;;;;;;;6.70;2.30;;;16.40;97.50;;;;;;5067712;28;19956;-44
2022/06/19 12:26:51;;;;;;;9.52;2.25;;;16.40;97.30;;;;;;5051421;28;20139;-44
2022/06/19 12:29:47;;;;;;;9.70;2.15;;;16.40;97.30;;;;;;5057057;28;20128;-44
2022/06/19 12:32:24;;;;;;;6.65;1.40;;;16.40;97.00;;;;;;5072124;28;20493;-44
2022/06/19 12:34:53;;;;;;;8.13;1.35;;;16.50;97.30;;;;;;5057634;28;20236;-44
2022/06/19 12:37:25;;;;;;;11.15;1.55;;;16.50;97.10;;;;;;5059487;28;20052;-43
2022/06/19 12:39:51;;;;;;;9.73;2.00;;;16.60;97.10;;;;;;5060595;28;20048;-44
2022/06/19 12:42:33;;;;;;;9.05;2.30;;;16.60;97.20;;;;;;5070122;28;20033;-43
2022/06/19 12:45:09;;;;;;;8.43;1.58;;;16.70;97.20;;;;;;5060379;28;20040;-44
2022/06/19 12:47:44;;;;;;;6.90;1.27;;;16.70;97.00;;;;;;5063777;28;20044;-45
2022/06/19 12:50:35;;;;;;;7.95;1.80;;;16.70;96.90;;;;;;5058306;28;20048;-43
2022/06/19 12:53:08;;;;;;;4.63;1.00;;;16.80;96.90;;;;;;5052612;28;20091;-46
2022/06/19 12:56:00;;;;;;;8.15;1.40;;;16.90;97.10;;;;;;5068042;28;20071;-45
2022/06/19 12:59:03;;;;;;;5.57;0.93;;;16.90;96.90;;;;;;5051469;28;20522;-44
2022/06/19 13:01:43;;;;;;;4.75;1.05;;;16.90;96.70;;;;;;5060262;28;20497;-44
2022/06/19 13:04:23;;;;;;;9.23;0.98;;;16.90;96.90;;;;;;5056575;28;20062;-44
2022/06/19 13:07:20;;;;;;;7.88;0.90;;;16.90;96.90;;;;;;5061775;28;20085;-45
2022/06/19 13:09:55;;;;;;;6.35;2.17;;;16.90;96.60;;;;;;5061592;28;20033;-44
2022/06/19 13:12:52;;;;;;;6.70;1.08;;;16.80;96.50;;;;;;5056507;28;20070;-44
2022/06/19 13:15:20;;;;;;;6.50;0.95;;;16.80;96.20;;;;;;5060018;28;20037;-44